Time;durP1;ratioP1;P1;durP2;ratioP2;P2;SDS_P1;SDS_P2;PMS_P1;PMS_P2;Temp;Humidity;BMP_temperature;BMP_pressure;BME280_temperature;BME280_humidity;BME280_pressure;Samples;Min_cycle;Max_cycle;Signal;HPM_P1;HPM_P2
2021/05/01 00:01:21;;;;;;;2.45;1.23;;;22.70;46.20;;;;;;5114218;28;20075;-40
2021/05/01 00:03:48;;;;;;;1.20;1.10;;;22.70;46.30;;;;;;5112943;28;20039;-40
2021/05/01 00:06:14;;;;;;;1.98;1.23;;;22.70;46.20;;;;;;5114201;28;20043;-40
2021/05/01 00:08:41;;;;;;;1.92;1.30;;;22.70;46.30;;;;;;5113500;28;20048;-40
2021/05/01 00:11:08;;;;;;;1.83;1.10;;;22.70;46.20;;;;;;5114006;28;20044;-41
2021/05/01 00:13:35;;;;;;;1.75;1.10;;;22.70;46.20;;;;;;5114057;27;20460;-40
2021/05/01 00:16:04;;;;;;;2.15;1.27;;;22.70;46.20;;;;;;5113031;28;20043;-39
2021/05/01 00:18:31;;;;;;;2.72;1.55;;;22.70;46.20;;;;;;5113577;28;20070;-40
2021/05/01 00:20:57;;;;;;;1.17;1.00;;;22.70;46.20;;;;;;5113343;28;20102;-40
2021/05/01 00:23:24;;;;;;;2.58;1.40;;;22.70;46.20;;;;;;5087479;27;20048;-40
2021/05/01 00:25:51;;;;;;;1.52;0.95;;;22.70;46.20;;;;;;5113466;28;20100;-40
2021/05/01 00:28:18;;;;;;;1.50;1.00;;;22.70;46.30;;;;;;5103775;28;20145;-39
2021/05/01 00:30:44;;;;;;;1.45;1.10;;;22.70;46.20;;;;;;5103180;28;20093;-40
2021/05/01 00:33:11;;;;;;;2.08;1.15;;;22.70;46.30;;;;;;5113008;28;20040;-40
2021/05/01 00:35:38;;;;;;;1.58;1.08;;;22.70;46.30;;;;;;5113137;27;20097;-40
2021/05/01 00:38:06;;;;;;;1.75;1.25;;;22.70;46.30;;;;;;5114275;27;20104;-41
2021/05/01 00:40:33;;;;;;;1.45;1.30;;;22.70;46.20;;;;;;5113612;28;20148;-40
2021/05/01 00:43:00;;;;;;;1.25;1.10;;;22.70;46.20;;;;;;5113186;28;20055;-41
2021/05/01 00:45:27;;;;;;;2.40;1.33;;;22.70;46.20;;;;;;5112742;28;20047;-40
2021/05/01 00:47:54;;;;;;;2.83;1.30;;;22.70;46.20;;;;;;5112938;28;20047;-41
2021/05/01 00:50:20;;;;;;;1.77;1.25;;;22.70;46.20;;;;;;5113317;28;20476;-40
2021/05/01 00:52:48;;;;;;;1.80;1.15;;;22.70;46.30;;;;;;5113190;28;20055;-41
2021/05/01 00:55:28;;;;;;;1.83;1.00;;;22.70;46.30;;;;;;5113406;28;20075;-40
2021/05/01 00:57:54;;;;;;;1.02;0.93;;;22.70;46.30;;;;;;5113585;28;20507;-40
2021/05/01 01:00:42;;;;;;;1.58;1.15;;;22.70;46.30;;;;;;5112593;28;20557;-40
2021/05/01 01:03:09;;;;;;;1.50;1.00;;;22.70;46.20;;;;;;5111943;28;20104;-41
2021/05/01 01:05:35;;;;;;;1.60;1.20;;;22.60;46.10;;;;;;5112268;28;20054;-40
2021/05/01 01:08:02;;;;;;;2.45;1.08;;;22.70;46.30;;;;;;5111549;28;20047;-41
2021/05/01 01:10:29;;;;;;;3.58;1.00;;;22.70;46.30;;;;;;5113405;28;20071;-40
2021/05/01 01:12:56;;;;;;;1.85;1.00;;;22.70;46.20;;;;;;5113178;28;20055;-40
2021/05/01 01:15:27;;;;;;;1.52;1.10;;;22.70;46.20;;;;;;5111870;28;20056;-40
2021/05/01 01:17:54;;;;;;;1.23;1.00;;;22.70;46.30;;;;;;5112356;28;20075;-42
2021/05/01 01:20:21;;;;;;;2.30;1.20;;;22.70;46.50;;;;;;5102369;28;20055;-40
2021/05/01 01:22:48;;;;;;;1.45;1.08;;;22.70;46.20;;;;;;5111748;28;20043;-40
2021/05/01 01:25:16;;;;;;;1.75;1.20;;;22.70;46.20;;;;;;5113045;28;20058;-40
2021/05/01 01:27:44;;;;;;;1.38;0.90;;;22.60;46.10;;;;;;5112538;28;20086;-40
2021/05/01 01:30:13;;;;;;;2.92;1.30;;;22.70;46.30;;;;;;5112103;27;20040;-41
2021/05/01 01:32:40;;;;;;;1.35;1.20;;;22.70;46.20;;;;;;5111377;28;20043;-40
2021/05/01 01:35:09;;;;;;;1.17;0.90;;;22.70;46.20;;;;;;5112016;27;20035;-40
2021/05/01 01:37:39;;;;;;;1.40;0.93;;;22.60;46.20;;;;;;5112935;28;20485;-41
2021/05/01 01:40:07;;;;;;;2.72;1.10;;;22.70;46.30;;;;;;5102027;28;20058;-40
2021/05/01 01:42:33;;;;;;;3.28;1.17;;;22.70;46.20;;;;;;5112280;28;20411;-40
2021/05/01 01:45:00;;;;;;;1.83;1.00;;;22.70;46.20;;;;;;5112375;27;20059;-40
2021/05/01 01:47:30;;;;;;;1.75;1.00;;;22.70;46.20;;;;;;5111659;27;20044;-40
2021/05/01 01:49:57;;;;;;;1.15;0.90;;;22.60;46.10;;;;;;5111288;28;20052;-40
2021/05/01 01:52:24;;;;;;;1.45;0.95;;;22.60;46.10;;;;;;5112564;28;20106;-40
2021/05/01 01:54:51;;;;;;;2.03;1.27;;;22.70;46.20;;;;;;5101812;28;20075;-40
2021/05/01 01:57:17;;;;;;;1.38;1.10;;;22.60;46.20;;;;;;5111284;28;20047;-40
2021/05/01 01:59:44;;;;;;;1.98;1.05;;;22.60;46.10;;;;;;5101991;28;20047;-40
2021/05/01 02:02:11;;;;;;;2.03;1.20;;;22.70;46.20;;;;;;5112898;27;20093;-40
2021/05/01 02:04:38;;;;;;;1.52;1.02;;;22.60;46.10;;;;;;5101822;28;20051;-40
2021/05/01 02:07:05;;;;;;;1.67;1.10;;;22.60;46.10;;;;;;5111177;28;20040;-40
2021/05/01 02:09:32;;;;;;;1.95;1.00;;;22.60;46.10;;;;;;5111897;28;20057;-42
2021/05/01 02:11:59;;;;;;;1.55;1.10;;;22.60;46.10;;;;;;5112124;28;20044;-40
2021/05/01 02:14:25;;;;;;;2.33;1.40;;;22.70;46.20;;;;;;5110575;28;20502;-41
2021/05/01 02:16:52;;;;;;;1.30;1.10;;;22.60;46.10;;;;;;5110455;28;20051;-40
2021/05/01 02:19:19;;;;;;;2.33;1.15;;;22.60;46.10;;;;;;5111029;28;20092;-42
2021/05/01 02:21:45;;;;;;;1.73;1.25;;;22.70;46.20;;;;;;5112228;28;20040;-40
2021/05/01 02:24:12;;;;;;;1.42;1.02;;;22.70;46.20;;;;;;5101573;28;20418;-41
2021/05/01 02:26:39;;;;;;;1.02;0.90;;;22.60;46.10;;;;;;5111178;28;20483;-40
2021/05/01 02:29:05;;;;;;;1.27;1.00;;;22.60;46.10;;;;;;5110806;27;20476;-39
2021/05/01 02:31:32;;;;;;;1.92;1.30;;;22.60;46.10;;;;;;5110544;28;20063;-41
2021/05/01 02:33:58;;;;;;;1.83;1.20;;;22.60;46.10;;;;;;5110754;28;20047;-41
2021/05/01 02:36:25;;;;;;;1.60;1.02;;;22.60;46.10;;;;;;5111787;28;20093;-41
2021/05/01 02:38:52;;;;;;;1.60;1.00;;;22.70;46.20;;;;;;5111377;28;20048;-40
2021/05/01 02:41:22;;;;;;;1.42;1.00;;;22.60;46.20;;;;;;5110890;28;20071;-40
2021/05/01 02:43:49;;;;;;;1.70;0.98;;;22.60;46.10;;;;;;5099178;28;20043;-40
2021/05/01 02:46:15;;;;;;;2.20;1.05;;;22.60;46.10;;;;;;5100384;28;20097;-40
2021/05/01 02:48:42;;;;;;;1.65;0.90;;;22.70;46.20;;;;;;5109884;28;20051;-41
2021/05/01 02:51:09;;;;;;;1.08;0.90;;;22.70;46.20;;;;;;5111563;28;20453;-40
2021/05/01 02:53:36;;;;;;;1.13;0.80;;;22.60;46.10;;;;;;5111360;28;20039;-40
2021/05/01 02:56:02;;;;;;;1.92;1.25;;;22.60;46.10;;;;;;5110970;28;20047;-42
2021/05/01 02:58:29;;;;;;;1.50;1.00;;;22.60;46.10;;;;;;5110600;28;20643;-40
2021/05/01 03:00:58;;;;;;;1.88;1.20;;;22.70;46.20;;;;;;5111214;28;20047;-40
2021/05/01 03:03:29;;;;;;;1.13;1.02;;;22.70;46.20;;;;;;5110555;28;20673;-42
2021/05/01 03:05:55;;;;;;;1.60;0.93;;;22.60;46.10;;;;;;5110938;28;20051;-40
2021/05/01 03:08:22;;;;;;;0.98;0.82;;;22.60;46.10;;;;;;5110598;28;20380;-40
2021/05/01 03:10:48;;;;;;;1.85;1.08;;;22.60;46.10;;;;;;5110780;27;20048;-41
2021/05/01 03:13:15;;;;;;;1.17;0.90;;;22.60;46.10;;;;;;5110446;28;20162;-39
2021/05/01 03:15:42;;;;;;;1.38;0.80;;;22.60;46.10;;;;;;5100540;28;20040;-41
2021/05/01 03:18:09;;;;;;;1.33;1.00;;;22.60;46.10;;;;;;5110662;28;20058;-40
2021/05/01 03:20:36;;;;;;;1.33;1.00;;;22.60;46.10;;;;;;5101113;28;20048;-40
2021/05/01 03:23:07;;;;;;;1.00;0.82;;;22.60;46.10;;;;;;5110414;28;20051;-40
2021/05/01 03:25:34;;;;;;;3.13;1.00;;;22.60;46.10;;;;;;5111257;28;20058;-40
2021/05/01 03:28:00;;;;;;;1.20;1.05;;;22.60;46.10;;;;;;5114364;28;20040;-40
2021/05/01 03:30:27;;;;;;;2.05;1.13;;;22.60;46.10;;;;;;5113900;28;20067;-41
2021/05/01 03:32:54;;;;;;;1.42;1.08;;;22.60;46.10;;;;;;5115829;27;20475;-40
2021/05/01 03:35:20;;;;;;;1.17;1.00;;;22.60;46.10;;;;;;5114541;27;20100;-41
2021/05/01 03:37:48;;;;;;;1.58;1.10;;;22.60;46.10;;;;;;5114792;27;20055;-40
2021/05/01 03:40:15;;;;;;;1.95;0.95;;;22.60;46.10;;;;;;5114196;28;20075;-40
2021/05/01 03:42:42;;;;;;;1.67;1.23;;;22.60;46.10;;;;;;5114473;28;20116;-42
2021/05/01 03:45:09;;;;;;;1.30;1.00;;;22.60;46.10;;;;;;5114805;28;20040;-41
2021/05/01 03:47:37;;;;;;;1.13;0.90;;;22.60;46.10;;;;;;5115069;28;20392;-40
2021/05/01 03:50:05;;;;;;;1.27;0.90;;;22.60;46.10;;;;;;5105003;28;20050;-40
2021/05/01 03:52:31;;;;;;;1.42;1.00;;;22.60;46.10;;;;;;5114480;28;20052;-41
2021/05/01 03:54:58;;;;;;;1.75;1.00;;;22.60;46.10;;;;;;5102774;28;20051;-41
2021/05/01 03:57:45;;;;;;;1.40;1.00;;;22.60;46.10;;;;;;5114243;27;20043;-41
2021/05/01 04:00:12;;;;;;;1.27;1.00;;;22.60;46.10;;;;;;5113945;27;20052;-41
2021/05/01 04:02:39;;;;;;;2.03;1.10;;;22.60;46.10;;;;;;5114908;27;20130;-41
2021/05/01 04:05:07;;;;;;;1.00;0.73;;;22.60;46.70;;;;;;5114147;28;20103;-39
2021/05/01 04:07:34;;;;;;;1.55;1.00;;;22.60;46.10;;;;;;5113038;28;20046;-40
2021/05/01 04:10:01;;;;;;;1.60;0.90;;;22.60;46.10;;;;;;5084887;28;20426;-40
2021/05/01 04:12:28;;;;;;;0.90;0.82;;;22.60;46.10;;;;;;5113300;27;20062;-42
2021/05/01 04:14:55;;;;;;;1.40;0.88;;;22.60;46.10;;;;;;5103327;28;20082;-40
2021/05/01 04:17:21;;;;;;;1.08;0.90;;;22.60;46.10;;;;;;5115137;27;20046;-40
2021/05/01 04:19:49;;;;;;;1.45;1.13;;;22.60;46.10;;;;;;5113953;28;20051;-42
2021/05/01 04:22:25;;;;;;;1.20;1.10;;;22.60;46.10;;;;;;5114307;28;20047;-41
2021/05/01 04:24:52;;;;;;;1.48;1.05;;;22.60;46.10;;;;;;5113853;28;20048;-40
2021/05/01 04:27:19;;;;;;;1.98;1.13;;;22.60;46.10;;;;;;5113660;28;20140;-41
2021/05/01 04:29:46;;;;;;;1.75;0.93;;;22.60;46.10;;;;;;5112745;28;20046;-40
2021/05/01 04:32:13;;;;;;;1.30;1.00;;;22.60;46.10;;;;;;5113880;27;20069;-40
2021/05/01 04:34:40;;;;;;;1.23;1.08;;;22.60;46.10;;;;;;5114027;28;20562;-40
2021/05/01 04:37:06;;;;;;;2.45;1.38;;;22.60;46.10;;;;;;5103124;28;20079;-40
2021/05/01 04:39:34;;;;;;;2.22;0.90;;;22.60;46.10;;;;;;5113376;28;20052;-40
2021/05/01 04:42:05;;;;;;;1.45;1.00;;;22.60;46.10;;;;;;5112943;28;20039;-40
2021/05/01 04:44:34;;;;;;;0.98;0.80;;;22.60;46.10;;;;;;5113191;27;20055;-41
2021/05/01 04:47:02;;;;;;;1.65;0.80;;;22.60;46.10;;;;;;5113578;28;20151;-41
2021/05/01 04:49:30;;;;;;;1.38;1.13;;;22.60;46.10;;;;;;5113687;28;20120;-42
2021/05/01 04:51:58;;;;;;;1.13;0.82;;;22.60;46.10;;;;;;5112907;28;20097;-40
2021/05/01 04:54:25;;;;;;;1.05;0.77;;;22.60;46.10;;;;;;5112427;28;20442;-40
2021/05/01 04:56:52;;;;;;;1.55;1.00;;;22.60;46.10;;;;;;5113069;28;20043;-42
2021/05/01 04:59:18;;;;;;;2.35;1.27;;;22.60;46.10;;;;;;5112242;27;20411;-41
2021/05/01 05:01:50;;;;;;;0.90;0.80;;;22.60;46.10;;;;;;5113611;28;20047;-40
2021/05/01 05:04:17;;;;;;;0.77;0.73;;;22.60;46.10;;;;;;5113643;28;20078;-41
2021/05/01 05:06:44;;;;;;;1.40;1.00;;;22.60;46.10;;;;;;5113375;27;20047;-42
2021/05/01 05:09:11;;;;;;;1.15;1.00;;;22.60;46.10;;;;;;5111981;28;20039;-42
2021/05/01 05:11:37;;;;;;;1.67;0.80;;;22.60;46.10;;;;;;5111952;27;20039;-44
2021/05/01 05:14:04;;;;;;;1.40;1.10;;;22.60;46.10;;;;;;5111731;28;20043;-42
2021/05/01 05:16:31;;;;;;;1.33;0.77;;;22.60;46.10;;;;;;5112978;28;20039;-40
2021/05/01 05:18:57;;;;;;;1.17;0.90;;;22.60;46.10;;;;;;5103537;28;20124;-42
2021/05/01 05:21:24;;;;;;;1.25;0.90;;;22.60;46.10;;;;;;5111950;28;20059;-40
2021/05/01 05:23:51;;;;;;;1.92;0.95;;;22.60;46.10;;;;;;5112790;28;20109;-40
2021/05/01 05:26:17;;;;;;;0.88;0.75;;;22.60;46.10;;;;;;5101479;28;20097;-40
2021/05/01 05:28:44;;;;;;;1.35;1.00;;;22.60;46.10;;;;;;5102194;28;20991;-42
2021/05/01 05:31:11;;;;;;;1.80;0.93;;;22.60;46.10;;;;;;5112393;28;20384;-40
2021/05/01 05:33:37;;;;;;;1.63;1.08;;;22.60;46.00;;;;;;5112547;28;20048;-40
2021/05/01 05:36:04;;;;;;;1.20;0.95;;;22.60;46.10;;;;;;5112084;27;20047;-41
2021/05/01 05:38:31;;;;;;;1.23;0.98;;;22.60;46.00;;;;;;5112347;28;20514;-40
2021/05/01 05:40:57;;;;;;;1.67;0.90;;;22.60;46.10;;;;;;5111345;28;20047;-40
2021/05/01 05:43:25;;;;;;;1.35;1.00;;;22.60;46.00;;;;;;5112569;27;20044;-40
2021/05/01 05:45:51;;;;;;;1.63;0.90;;;22.60;46.10;;;;;;5112777;28;20047;-40
2021/05/01 05:48:19;;;;;;;1.95;1.20;;;22.60;46.00;;;;;;5111385;27;20059;-40
2021/05/01 05:50:46;;;;;;;2.33;1.10;;;22.60;46.00;;;;;;5102066;28;20055;-41
2021/05/01 05:53:12;;;;;;;1.30;0.95;;;22.60;46.00;;;;;;5112122;27;20597;-40
2021/05/01 05:55:39;;;;;;;1.70;1.30;;;22.60;46.00;;;;;;5111711;28;20453;-42
2021/05/01 05:58:05;;;;;;;1.10;1.00;;;22.60;46.00;;;;;;5111961;28;20040;-41
2021/05/01 06:00:32;;;;;;;1.10;1.00;;;22.60;46.00;;;;;;5111714;28;20054;-40
2021/05/01 06:03:00;;;;;;;1.10;1.00;;;22.60;46.00;;;;;;5111448;28;20403;-40
2021/05/01 06:05:35;;;;;;;1.27;0.82;;;22.60;46.00;;;;;;5101420;28;20047;-40
2021/05/01 06:08:05;;;;;;;1.05;0.85;;;22.70;46.10;;;;;;5110842;28;20105;-40
2021/05/01 06:10:33;;;;;;;1.80;1.00;;;22.60;46.00;;;;;;5111504;28;20052;-40
2021/05/01 06:13:03;;;;;;;1.08;0.80;;;22.60;46.00;;;;;;5112173;27;20039;-41
2021/05/01 06:15:30;;;;;;;1.67;1.02;;;22.60;46.00;;;;;;5111549;28;20491;-40
2021/05/01 06:17:59;;;;;;;1.25;0.90;;;22.70;46.10;;;;;;5112060;27;20062;-40
2021/05/01 06:20:27;;;;;;;0.98;0.70;;;22.70;46.10;;;;;;5101458;28;20142;-40
2021/05/01 06:22:54;;;;;;;1.02;0.93;;;22.60;46.00;;;;;;5111146;28;20058;-40
2021/05/01 06:25:22;;;;;;;1.52;1.00;;;22.70;46.10;;;;;;5111131;28;20088;-41
2021/05/01 06:27:53;;;;;;;1.23;0.80;;;22.60;46.00;;;;;;5111045;28;20074;-40
2021/05/01 06:30:21;;;;;;;1.23;0.98;;;22.60;46.00;;;;;;5110382;28;20044;-40
2021/05/01 06:32:50;;;;;;;1.10;0.85;;;22.60;46.00;;;;;;5110930;28;20097;-41
2021/05/01 06:35:18;;;;;;;1.55;1.10;;;22.70;46.10;;;;;;5110631;28;20056;-41
2021/05/01 06:37:46;;;;;;;1.33;0.80;;;22.60;46.00;;;;;;5111026;28;20514;-40
2021/05/01 06:40:16;;;;;;;1.58;1.00;;;22.70;46.10;;;;;;5110278;28;20048;-40
2021/05/01 06:43:01;;;;;;;0.80;0.80;;;22.70;46.00;;;;;;5111645;28;20051;-41
2021/05/01 06:45:28;;;;;;;1.10;0.98;;;22.70;46.00;;;;;;5110789;28;20055;-40
2021/05/01 06:48:00;;;;;;;2.00;0.90;;;22.60;45.90;;;;;;5102204;28;20047;-40
2021/05/01 06:50:28;;;;;;;1.17;0.90;;;22.70;46.00;;;;;;5110210;28;20131;-41
2021/05/01 06:52:59;;;;;;;1.00;0.90;;;22.70;46.00;;;;;;5110793;28;20039;-40
2021/05/01 06:55:30;;;;;;;1.50;1.00;;;22.70;46.00;;;;;;5111398;28;20123;-40
2021/05/01 06:57:58;;;;;;;1.23;0.90;;;22.70;46.00;;;;;;5110212;28;20043;-42
2021/05/01 07:00:26;;;;;;;1.08;0.98;;;22.70;46.00;;;;;;5110964;28;20043;-40
2021/05/01 07:03:15;;;;;;;1.05;0.75;;;22.70;46.00;;;;;;5111173;28;20063;-40
2021/05/01 07:05:42;;;;;;;1.80;0.70;;;22.70;46.00;;;;;;5111209;28;20047;-40
2021/05/01 07:08:12;;;;;;;1.00;0.77;;;22.70;46.00;;;;;;5109888;28;20149;-40
2021/05/01 07:10:39;;;;;;;1.63;1.10;;;22.70;45.90;;;;;;5101146;28;20046;-40
2021/05/01 07:13:12;;;;;;;1.50;0.90;;;22.70;45.90;;;;;;5110274;28;20100;-40
2021/05/01 07:15:41;;;;;;;1.17;0.90;;;22.70;45.90;;;;;;5110615;28;20043;-41
2021/05/01 07:18:10;;;;;;;1.23;1.05;;;22.70;45.90;;;;;;5110682;28;20090;-41
2021/05/01 07:20:38;;;;;;;2.35;0.82;;;22.70;45.90;;;;;;5110482;28;20052;-40
2021/05/01 07:23:05;;;;;;;2.10;1.08;;;22.70;45.90;;;;;;5100385;28;20505;-40
2021/05/01 07:25:32;;;;;;;1.25;0.93;;;22.70;45.90;;;;;;5100539;28;20051;-40
2021/05/01 07:28:02;;;;;;;1.10;0.80;;;22.70;45.90;;;;;;5110077;28;20452;-41
2021/05/01 07:30:34;;;;;;;1.05;0.95;;;22.70;45.90;;;;;;5109808;28;20498;-40
2021/05/01 07:33:12;;;;;;;1.17;1.08;;;22.70;45.90;;;;;;5110906;28;20109;-40
2021/05/01 07:35:41;;;;;;;1.10;0.70;;;22.70;45.80;;;;;;5110547;28;20048;-40
2021/05/01 07:38:11;;;;;;;1.00;0.90;;;22.70;45.80;;;;;;5110898;28;20051;-41
2021/05/01 07:40:39;;;;;;;0.90;0.70;;;22.70;45.90;;;;;;5109471;28;20056;-40
2021/05/01 07:43:07;;;;;;;1.25;0.90;;;22.70;45.80;;;;;;5110050;28;20122;-40
2021/05/01 07:45:36;;;;;;;1.00;0.90;;;22.70;45.80;;;;;;5109752;28;20052;-40
2021/05/01 07:48:07;;;;;;;0.98;0.68;;;22.70;45.80;;;;;;5100921;28;20036;-40
2021/05/01 07:50:34;;;;;;;0.88;0.88;;;22.70;45.80;;;;;;5110159;28;20066;-41
2021/05/01 07:53:03;;;;;;;1.08;0.90;;;22.70;45.80;;;;;;5110982;28;20113;-40
2021/05/01 07:55:30;;;;;;;1.33;1.00;;;22.70;45.80;;;;;;5099051;28;20051;-40
2021/05/01 07:57:57;;;;;;;0.95;0.85;;;22.70;45.80;;;;;;5110524;28;20445;-41
2021/05/01 08:00:23;;;;;;;1.25;1.10;;;22.70;45.80;;;;;;5109148;28;20044;-40
2021/05/01 08:02:53;;;;;;;1.02;0.93;;;22.70;45.90;;;;;;5110531;28;20494;-40
2021/05/01 08:05:24;;;;;;;1.30;1.08;;;22.70;45.80;;;;;;5110143;28;20055;-41
2021/05/01 08:07:52;;;;;;;0.80;0.80;;;22.70;45.90;;;;;;5110320;28;20039;-40
2021/05/01 08:10:19;;;;;;;1.10;0.90;;;22.70;45.90;;;;;;5109406;28;20040;-42
2021/05/01 08:12:46;;;;;;;0.95;0.77;;;22.70;45.80;;;;;;5112291;28;20043;-40
2021/05/01 08:15:13;;;;;;;1.00;0.90;;;22.70;45.90;;;;;;5103611;28;20055;-41
2021/05/01 08:17:41;;;;;;;1.77;1.05;;;22.70;45.80;;;;;;5113928;28;20067;-41
2021/05/01 08:20:10;;;;;;;1.67;0.93;;;22.70;45.80;;;;;;5114418;28;20047;-41
2021/05/01 08:22:38;;;;;;;1.05;0.80;;;22.70;45.90;;;;;;5113946;28;20100;-40
2021/05/01 08:25:07;;;;;;;1.20;1.05;;;22.70;45.80;;;;;;5112904;28;20086;-40
2021/05/01 08:27:34;;;;;;;1.30;1.00;;;22.70;45.80;;;;;;5112529;28;20495;-40
2021/05/01 08:30:02;;;;;;;1.00;0.90;;;22.70;45.80;;;;;;5113353;28;20043;-41
2021/05/01 08:32:29;;;;;;;1.98;0.88;;;22.70;45.80;;;;;;5103115;28;20039;-41
2021/05/01 08:34:56;;;;;;;1.13;0.73;;;22.70;45.80;;;;;;5113922;28;20487;-40
2021/05/01 08:37:24;;;;;;;1.13;0.95;;;22.70;45.80;;;;;;5113457;28;20415;-40
2021/05/01 08:39:50;;;;;;;1.15;0.98;;;22.70;45.80;;;;;;5113021;28;20066;-40
2021/05/01 08:42:17;;;;;;;1.38;0.93;;;22.70;45.80;;;;;;5113597;27;20048;-40
2021/05/01 08:44:44;;;;;;;1.00;0.90;;;22.70;45.80;;;;;;5113311;28;20052;-40
2021/05/01 08:47:11;;;;;;;0.80;0.80;;;22.70;45.80;;;;;;5113468;28;20039;-41
2021/05/01 08:49:39;;;;;;;1.85;1.00;;;22.70;45.80;;;;;;5112932;28;20040;-41
2021/05/01 08:52:06;;;;;;;1.40;1.17;;;22.70;45.80;;;;;;5103050;28;20054;-40
2021/05/01 08:54:33;;;;;;;0.95;0.77;;;22.70;45.80;;;;;;5102370;28;20048;-41
2021/05/01 08:57:01;;;;;;;0.88;0.88;;;22.80;45.90;;;;;;5112979;28;20040;-40
2021/05/01 08:59:30;;;;;;;1.08;1.00;;;22.70;45.70;;;;;;5112230;28;20057;-40
2021/05/01 09:01:56;;;;;;;0.70;0.70;;;22.80;45.80;;;;;;5114670;27;20043;-39
2021/05/01 09:04:23;;;;;;;1.27;1.00;;;22.80;45.80;;;;;;5113068;28;20113;-40
2021/05/01 09:06:50;;;;;;;1.10;0.98;;;22.70;45.80;;;;;;5112983;28;20047;-40
2021/05/01 09:09:17;;;;;;;0.82;0.80;;;22.70;45.70;;;;;;5111999;28;20054;-40
2021/05/01 09:11:45;;;;;;;1.05;0.90;;;22.80;45.80;;;;;;5101814;28;20048;-39
2021/05/01 09:14:15;;;;;;;1.23;0.80;;;22.70;45.70;;;;;;5112653;28;20051;-40
2021/05/01 09:16:43;;;;;;;1.00;0.90;;;22.70;45.70;;;;;;5113143;28;20039;-41
2021/05/01 09:19:10;;;;;;;3.00;0.90;;;22.80;45.80;;;;;;5112744;28;20134;-40
2021/05/01 09:21:37;;;;;;;1.55;1.13;;;22.80;45.80;;;;;;5113130;27;20047;-40
2021/05/01 09:24:04;;;;;;;2.05;1.00;;;22.70;45.70;;;;;;5112036;27;20054;-41
2021/05/01 09:26:42;;;;;;;0.93;0.88;;;22.70;45.70;;;;;;5112067;28;20044;-39
2021/05/01 09:29:26;;;;;;;1.17;1.02;;;22.70;45.70;;;;;;5112344;28;20131;-39
2021/05/01 09:31:53;;;;;;;1.38;0.93;;;22.70;45.70;;;;;;5113434;27;20047;-39
2021/05/01 09:34:33;;;;;;;1.17;0.85;;;22.70;45.70;;;;;;5112459;28;20517;-40
2021/05/01 09:36:59;;;;;;;1.00;0.90;;;22.70;45.70;;;;;;5113274;28;20380;-40
2021/05/01 09:39:29;;;;;;;1.45;1.00;;;22.70;45.70;;;;;;5112424;27;20391;-39
2021/05/01 09:41:55;;;;;;;1.10;0.93;;;22.70;45.70;;;;;;5112364;27;20100;-40
2021/05/01 09:44:23;;;;;;;1.20;0.82;;;22.80;45.70;;;;;;5111874;28;20043;-39
2021/05/01 09:46:53;;;;;;;1.60;1.00;;;22.80;45.70;;;;;;5112109;28;20108;-40
2021/05/01 09:49:23;;;;;;;1.27;1.10;;;22.80;45.80;;;;;;5112329;28;20131;-40
2021/05/01 09:51:57;;;;;;;0.73;0.70;;;22.80;45.70;;;;;;5112912;27;20171;-39
2021/05/01 09:54:25;;;;;;;;;;;22.80;45.70;;;;;;5112125;28;20051;-40
2021/05/01 09:56:54;;;;;;;1.52;0.90;;;22.80;45.80;;;;;;5101970;28;19931;-40
2021/05/01 09:59:21;;;;;;;0.90;0.90;;;22.80;45.70;;;;;;5111335;28;20121;-39
2021/05/01 10:01:56;;;;;;;1.30;0.93;;;22.80;45.70;;;;;;5111119;28;20055;-40
2021/05/01 10:04:23;;;;;;;1.15;0.90;;;22.80;45.80;;;;;;5112144;28;20083;-39
2021/05/01 10:07:08;;;;;;;1.00;0.90;;;22.80;45.70;;;;;;5112525;28;20051;-40
2021/05/01 10:09:41;;;;;;;1.13;0.95;;;22.80;45.70;;;;;;5102288;28;20051;-42
2021/05/01 10:12:11;;;;;;;1.30;1.08;;;22.80;46.30;;;;;;5111143;28;20108;-40
2021/05/01 10:14:47;;;;;;;1.15;0.90;;;22.80;45.70;;;;;;5111354;28;20056;-40
2021/05/01 10:17:21;;;;;;;1.00;0.90;;;22.80;45.80;;;;;;5110788;28;20492;-40
2021/05/01 10:19:51;;;;;;;1.55;1.10;;;22.80;45.70;;;;;;5111154;27;20511;-40
2021/05/01 10:22:43;;;;;;;1.50;1.10;;;22.80;45.70;;;;;;5101172;28;20055;-40
2021/05/01 10:25:12;;;;;;;1.23;1.02;;;22.80;45.70;;;;;;5111082;27;20058;-39
2021/05/01 10:28:02;;;;;;;1.10;1.00;;;22.80;45.70;;;;;;5111248;28;20051;-40
2021/05/01 10:30:35;;;;;;;1.00;0.90;;;22.80;45.70;;;;;;5111130;28;20404;-40
2021/05/01 10:33:29;;;;;;;1.20;1.10;;;22.80;45.70;;;;;;5110989;28;20122;-40
2021/05/01 10:36:10;;;;;;;1.10;1.00;;;22.80;45.70;;;;;;5110465;28;20096;-39
2021/05/01 10:38:38;;;;;;;1.08;0.98;;;22.80;45.70;;;;;;5111298;28;20121;-40
2021/05/01 10:41:08;;;;;;;1.08;0.90;;;22.80;45.70;;;;;;5099063;28;20039;-40
2021/05/01 10:43:37;;;;;;;1.27;1.00;;;22.80;45.70;;;;;;5100525;28;20059;-40
2021/05/01 10:46:06;;;;;;;1.30;1.05;;;22.80;45.70;;;;;;5110119;28;20058;-40
2021/05/01 10:48:46;;;;;;;1.60;1.20;;;22.80;45.70;;;;;;5110850;28;20047;-40
2021/05/01 10:51:14;;;;;;;1.10;1.00;;;22.80;45.70;;;;;;5111936;27;20051;-40
2021/05/01 10:53:41;;;;;;;1.02;0.90;;;22.80;45.70;;;;;;5099493;28;20101;-40
2021/05/01 10:56:10;;;;;;;1.20;1.02;;;22.80;45.70;;;;;;5109984;28;20050;-40
2021/05/01 10:58:43;;;;;;;1.67;1.00;;;22.80;45.70;;;;;;5110388;28;20402;-40
2021/05/01 11:01:28;;;;;;;1.13;1.00;;;22.80;45.70;;;;;;5110300;28;20047;-39
2021/05/01 11:04:04;;;;;;;1.45;1.10;;;22.80;45.60;;;;;;5110497;28;20043;-40
2021/05/01 11:07:10;;;;;;;1.00;0.90;;;22.80;45.70;;;;;;5111533;28;20608;-39
2021/05/01 11:09:48;;;;;;;1.00;0.90;;;22.80;45.70;;;;;;5110124;28;20103;-41
2021/05/01 11:12:22;;;;;;;1.20;1.00;;;22.80;45.70;;;;;;5110673;28;20047;-39
2021/05/01 11:14:51;;;;;;;1.30;1.20;;;22.80;45.70;;;;;;5110774;28;20059;-41
2021/05/01 11:17:36;;;;;;;1.13;1.02;;;22.80;45.70;;;;;;5109677;28;20046;-40
2021/05/01 11:20:10;;;;;;;0.82;0.80;;;22.80;45.70;;;;;;5109652;28;20073;-40
2021/05/01 11:22:40;;;;;;;1.13;0.90;;;22.80;45.70;;;;;;5110001;28;20048;-40
2021/05/01 11:25:15;;;;;;;0.95;0.82;;;22.80;45.70;;;;;;5109604;28;20071;-41
2021/05/01 11:27:44;;;;;;;0.95;0.90;;;22.80;45.70;;;;;;5110505;28;20047;-40
2021/05/01 11:30:14;;;;;;;1.10;1.00;;;22.80;45.80;;;;;;5110632;28;20048;-40
2021/05/01 11:32:43;;;;;;;1.30;1.10;;;22.80;45.70;;;;;;5100538;28;20043;-40
2021/05/01 11:35:14;;;;;;;1.40;1.30;;;22.80;45.70;;;;;;5110346;28;20051;-41
2021/05/01 11:37:43;;;;;;;1.20;1.10;;;22.80;45.70;;;;;;5109891;28;20044;-40
2021/05/01 11:40:13;;;;;;;1.20;0.93;;;22.80;45.70;;;;;;5109650;28;20047;-39
2021/05/01 11:42:41;;;;;;;1.00;0.82;;;22.80;45.70;;;;;;5109995;28;20046;-40
2021/05/01 11:45:17;;;;;;;1.17;1.08;;;22.80;45.70;;;;;;5110968;28;20055;-39
2021/05/01 11:47:52;;;;;;;1.02;0.93;;;22.80;45.70;;;;;;5113854;28;20508;-40
2021/05/01 11:50:20;;;;;;;1.48;1.15;;;22.80;45.70;;;;;;5114122;28;20483;-41
2021/05/01 11:53:16;;;;;;;1.30;1.13;;;22.80;45.70;;;;;;5113763;28;20040;-41
2021/05/01 11:56:09;;;;;;;1.63;1.17;;;22.80;45.90;;;;;;5113056;28;20051;-39
2021/05/01 11:58:36;;;;;;;1.25;1.08;;;22.80;45.70;;;;;;5040407;28;20053;-39
2021/05/01 12:01:32;;;;;;;1.10;1.00;;;22.80;45.70;;;;;;5040060;28;20578;-41
2021/05/01 12:04:01;;;;;;;1.02;0.85;;;22.80;45.70;;;;;;5038929;28;20089;-43
2021/05/01 12:06:28;;;;;;;1.10;0.82;;;22.80;45.70;;;;;;5040260;28;20056;-40
2021/05/01 12:09:17;;;;;;;1.58;1.17;;;22.80;45.70;;;;;;5023657;28;20099;-41
2021/05/01 12:11:48;;;;;;;1.38;1.20;;;22.80;45.70;;;;;;5040702;28;20485;-40
2021/05/01 12:14:17;;;;;;;1.20;1.10;;;22.80;45.70;;;;;;5040838;28;20057;-42
2021/05/01 12:16:45;;;;;;;1.08;0.90;;;22.80;45.70;;;;;;5039085;28;20591;-40
2021/05/01 12:19:25;;;;;;;1.08;0.98;;;22.80;45.70;;;;;;5040637;28;20041;-42
2021/05/01 12:21:53;;;;;;;1.58;1.02;;;22.80;45.70;;;;;;5040271;28;20091;-42
2021/05/01 12:24:32;;;;;;;1.10;0.90;;;22.80;45.70;;;;;;5038966;28;20042;-40
2021/05/01 12:26:59;;;;;;;1.10;1.00;;;22.80;45.70;;;;;;5040291;28;20203;-40
2021/05/01 12:29:28;;;;;;;1.10;1.00;;;22.80;45.70;;;;;;5040490;28;20059;-41
2021/05/01 12:31:59;;;;;;;0.85;0.85;;;22.80;45.70;;;;;;5039570;28;20049;-41
2021/05/01 12:34:50;;;;;;;1.08;0.98;;;22.80;45.70;;;;;;5043562;28;20045;-41
2021/05/01 12:37:19;;;;;;;1.10;1.00;;;22.80;45.70;;;;;;5113575;28;20070;-41
2021/05/01 12:39:46;;;;;;;1.13;0.90;;;22.80;45.70;;;;;;5113344;28;20093;-45
2021/05/01 12:42:27;;;;;;;1.30;1.20;;;22.80;45.70;;;;;;5113249;27;20047;-42
2021/05/01 12:44:55;;;;;;;1.02;0.90;;;22.80;45.70;;;;;;5113114;28;20047;-41
2021/05/01 12:47:37;;;;;;;1.20;1.10;;;22.80;45.70;;;;;;5104247;27;20086;-45
2021/05/01 12:50:26;;;;;;;1.30;1.20;;;22.80;45.70;;;;;;5113769;28;20095;-42
2021/05/01 12:53:31;;;;;;;1.60;1.30;;;22.80;45.70;;;;;;5113774;28;20836;-42
2021/05/01 12:56:27;;;;;;;1.27;1.17;;;22.80;45.70;;;;;;5113341;28;20396;-43
2021/05/01 12:59:19;;;;;;;1.23;1.13;;;22.80;45.70;;;;;;5102562;28;20085;-42
2021/05/01 13:01:52;;;;;;;1.70;1.25;;;22.80;45.70;;;;;;5113520;28;20085;-42